createdAt,value
2017-05-31T00:01:58.528Z,24.88
2017-05-31T00:04:26.772Z,26.47
2017-05-31T00:06:54.988Z,26.97
2017-05-31T00:09:23.254Z,25.63
2017-05-31T00:11:51.530Z,25.82
2017-05-31T00:14:19.771Z,27.43
2017-05-31T00:16:47.999Z,27.53
2017-05-31T00:19:16.209Z,27.60
2017-05-31T00:21:44.539Z,27.67
2017-05-31T00:24:12.803Z,27.84
2017-05-31T00:26:41.091Z,27.17
2017-05-31T00:29:09.307Z,27.56
2017-05-31T00:31:37.539Z,25.40
2017-05-31T00:34:05.755Z,25.22
2017-05-31T00:36:33.990Z,25.20
2017-05-31T00:39:02.207Z,24.22
2017-05-31T00:41:30.429Z,24.23
2017-05-31T00:43:58.656Z,24.53
2017-05-31T00:46:26.983Z,24.25
2017-05-31T00:48:55.187Z,23.72
2017-05-31T00:51:23.423Z,25.37
2017-05-31T00:53:51.703Z,24.52
2017-05-31T00:56:19.944Z,24.23
2017-05-31T00:58:48.353Z,25.62
2017-05-31T01:01:16.555Z,25.50
2017-05-31T01:03:44.785Z,25.13
2017-05-31T01:06:12.994Z,25.92
2017-05-31T01:08:41.227Z,28.25
2017-05-31T01:11:09.439Z,25.55
2017-05-31T01:13:37.656Z,25.60
2017-05-31T01:16:05.871Z,24.68
2017-05-31T01:18:34.087Z,25.20
2017-05-31T01:21:02.307Z,23.78
2017-05-31T01:23:30.524Z,24.27
2017-05-31T01:25:58.788Z,22.38
2017-05-31T01:28:27.024Z,24.10
2017-05-31T01:30:55.226Z,25.84
2017-05-31T01:33:23.503Z,24.55
2017-05-31T01:35:51.767Z,24.83
2017-05-31T01:38:20.050Z,24.23
2017-05-31T01:40:48.335Z,24.82
2017-05-31T01:43:16.609Z,25.17
2017-05-31T01:45:44.821Z,26.45
2017-05-31T01:48:13.150Z,25.58
2017-05-31T01:50:41.423Z,27.04
2017-05-31T01:53:09.712Z,26.88
2017-05-31T01:55:38.075Z,26.02
2017-05-31T01:58:06.299Z,26.30
2017-05-31T02:00:34.522Z,27.93
2017-05-31T02:03:02.802Z,25.42
2017-05-31T02:05:31.073Z,27.43
2017-05-31T02:07:59.295Z,25.38
2017-05-31T02:10:27.520Z,25.86
2017-05-31T02:12:55.808Z,27.30
2017-05-31T02:15:24.018Z,25.86
2017-05-31T02:17:52.256Z,25.18
2017-05-31T02:20:20.519Z,25.72
2017-05-31T02:22:48.726Z,25.77
2017-05-31T02:25:16.939Z,25.07
2017-05-31T02:27:45.184Z,26.30
2017-05-31T02:30:13.395Z,24.78
2017-05-31T02:32:41.700Z,25.08
2017-05-31T02:35:09.971Z,24.50
2017-05-31T02:37:38.224Z,24.83
2017-05-31T02:40:06.434Z,25.57
2017-05-31T02:42:34.769Z,24.30
2017-05-31T02:45:02.978Z,27.67
2017-05-31T02:47:31.249Z,30.05
2017-05-31T02:49:59.487Z,30.30
2017-05-31T02:52:27.803Z,32.32
2017-05-31T02:54:56.074Z,33.90
2017-05-31T02:57:24.351Z,30.95
2017-05-31T02:59:52.555Z,34.76
2017-05-31T03:02:20.798Z,34.45
2017-05-31T03:04:49.010Z,35.12
2017-05-31T03:07:17.212Z,34.00
2017-05-31T03:09:45.454Z,35.35
2017-05-31T03:12:13.688Z,32.45
2017-05-31T03:14:41.971Z,33.38
2017-05-31T03:17:10.200Z,33.85
2017-05-31T03:19:38.433Z,33.23
2017-05-31T03:22:06.656Z,34.67
2017-05-31T03:24:34.864Z,32.05
2017-05-31T03:27:03.082Z,36.07
2017-05-31T03:29:31.307Z,32.25
2017-05-31T03:31:59.578Z,31.68
2017-05-31T03:34:27.843Z,35.43
2017-05-31T03:36:56.049Z,34.25
2017-05-31T03:39:24.283Z,33.35
2017-05-31T03:41:52.500Z,32.62
2017-05-31T03:44:20.740Z,31.92
2017-05-31T03:46:48.953Z,31.94
2017-05-31T03:49:17.203Z,32.55
2017-05-31T03:51:45.462Z,34.42
2017-05-31T03:54:13.697Z,31.88
2017-05-31T03:56:41.915Z,32.00
2017-05-31T03:59:10.144Z,31.85
2017-05-31T04:01:38.472Z,34.55
2017-05-31T04:04:06.702Z,31.93
2017-05-31T04:06:34.932Z,31.83
2017-05-31T04:09:03.148Z,32.00
2017-05-31T04:11:31.362Z,33.07
2017-05-31T04:13:59.651Z,32.05
2017-05-31T04:16:27.862Z,32.15
2017-05-31T04:18:56.108Z,30.43
2017-05-31T04:21:24.358Z,31.90
2017-05-31T04:23:52.757Z,32.42
2017-05-31T04:26:21.003Z,32.65
2017-05-31T04:28:49.335Z,31.75
2017-05-31T04:31:17.588Z,32.67
2017-05-31T04:33:47.870Z,32.65
2017-05-31T04:36:16.171Z,31.12
2017-05-31T04:38:44.407Z,31.97
2017-05-31T04:41:12.618Z,30.80
2017-05-31T04:43:40.857Z,32.13
2017-05-31T04:46:09.064Z,30.98
2017-05-31T04:48:37.285Z,32.22
2017-05-31T04:51:05.521Z,31.05
2017-05-31T04:53:33.762Z,32.98
2017-05-31T04:56:01.987Z,30.82
2017-05-31T04:58:30.243Z,29.60
2017-05-31T05:00:58.474Z,26.55
2017-05-31T05:03:26.820Z,26.30
2017-05-31T05:05:55.059Z,23.78
2017-05-31T05:08:23.258Z,21.34
2017-05-31T05:10:51.503Z,19.75
2017-05-31T05:13:19.798Z,19.28
2017-05-31T05:15:48.072Z,16.85
2017-05-31T05:18:16.317Z,14.30
2017-05-31T05:20:44.578Z,13.85
2017-05-31T05:23:12.793Z,10.05
2017-05-31T05:25:41.182Z,9.30
2017-05-31T05:28:09.468Z,9.58
2017-05-31T05:30:37.845Z,10.20
2017-05-31T05:33:06.098Z,8.40
2017-05-31T05:35:34.353Z,11.45
2017-05-31T05:38:02.646Z,7.70
2017-05-31T05:40:30.935Z,7.98
2017-05-31T05:42:59.139Z,7.92
2017-05-31T05:45:27.419Z,6.37
2017-05-31T05:47:55.641Z,5.52
2017-05-31T05:50:23.981Z,6.48
2017-05-31T05:52:52.178Z,6.82
2017-05-31T05:55:20.482Z,5.83
2017-05-31T05:57:48.727Z,6.28
2017-05-31T06:00:17.218Z,4.37
2017-05-31T06:02:45.526Z,4.68
2017-05-31T06:05:13.758Z,6.05
2017-05-31T06:07:41.963Z,5.80
2017-05-31T06:10:10.340Z,3.77
2017-05-31T06:12:38.611Z,3.85
2017-05-31T06:15:06.845Z,3.50
2017-05-31T06:17:35.071Z,4.07
2017-05-31T06:20:03.351Z,3.12
2017-05-31T06:22:31.617Z,4.48
2017-05-31T06:24:59.857Z,3.27
2017-05-31T06:27:28.069Z,2.80
2017-05-31T06:29:56.407Z,3.58
2017-05-31T06:32:24.604Z,3.40
2017-05-31T06:34:53.083Z,3.70
2017-05-31T06:37:21.292Z,2.97
2017-05-31T06:39:49.532Z,4.48
2017-05-31T06:42:17.834Z,5.05
2017-05-31T06:44:46.038Z,4.32
2017-05-31T06:47:14.359Z,3.20
2017-05-31T06:49:42.583Z,4.55
2017-05-31T06:52:10.802Z,3.70
2017-05-31T06:54:39.019Z,4.50
2017-05-31T06:57:07.260Z,3.70
2017-05-31T06:59:35.487Z,4.83
2017-05-31T07:02:03.703Z,4.87
2017-05-31T07:04:31.903Z,2.83
2017-05-31T07:07:00.129Z,3.20
2017-05-31T07:09:28.331Z,2.90
2017-05-31T07:11:56.571Z,2.93
2017-05-31T07:14:24.910Z,3.38
2017-05-31T07:16:53.157Z,2.88
2017-05-31T07:19:21.525Z,3.43
2017-05-31T07:21:49.737Z,3.07
2017-05-31T07:24:18.015Z,3.00
2017-05-31T07:26:46.332Z,2.97
2017-05-31T07:29:14.530Z,2.85
2017-05-31T07:31:42.785Z,3.18
2017-05-31T07:34:11.093Z,3.92
2017-05-31T07:36:39.770Z,2.55
2017-05-31T07:39:07.991Z,2.48
2017-05-31T07:41:36.212Z,2.33
2017-05-31T07:44:04.426Z,2.60
2017-05-31T07:46:32.669Z,2.85
2017-05-31T07:49:00.948Z,1.93
2017-05-31T07:51:29.163Z,1.92
2017-05-31T07:53:57.409Z,2.10
2017-05-31T07:56:25.619Z,1.70
2017-05-31T07:58:53.835Z,2.20
2017-05-31T08:01:22.071Z,3.90
2017-05-31T08:03:50.271Z,3.07
2017-05-31T08:06:18.575Z,3.77
2017-05-31T08:08:46.803Z,1.68
2017-05-31T08:11:15.012Z,2.90
2017-05-31T08:13:43.283Z,2.37
2017-05-31T08:16:11.593Z,1.55
2017-05-31T08:18:39.863Z,2.10
2017-05-31T08:21:08.226Z,2.25
2017-05-31T08:26:27.864Z,2.90
2017-05-31T08:28:56.083Z,1.92
2017-05-31T08:31:24.311Z,2.68
2017-05-31T08:33:52.523Z,1.75
2017-05-31T08:36:20.856Z,2.93
2017-05-31T08:38:49.011Z,2.00
2017-05-31T08:41:17.235Z,2.75
2017-05-31T08:43:45.473Z,1.75
2017-05-31T08:46:13.702Z,2.05
2017-05-31T08:48:41.143Z,2.25
2017-05-31T08:51:08.596Z,3.92
2017-05-31T08:53:36.989Z,2.20
2017-05-31T08:56:05.229Z,3.55
2017-05-31T08:58:33.436Z,2.24
2017-05-31T09:01:01.668Z,1.42
2017-05-31T09:03:29.877Z,2.05
2017-05-31T09:05:58.104Z,2.10
2017-05-31T09:08:26.336Z,2.07
2017-05-31T09:10:54.536Z,2.72
2017-05-31T09:13:22.819Z,2.53
2017-05-31T09:15:51.063Z,3.90
2017-05-31T09:18:19.291Z,4.27
2017-05-31T09:20:47.625Z,3.42
2017-05-31T09:23:15.839Z,3.00
2017-05-31T09:25:44.059Z,4.68
2017-05-31T09:28:12.290Z,3.27
2017-05-31T09:30:40.510Z,2.95
2017-05-31T09:33:08.913Z,3.66
2017-05-31T09:35:37.278Z,2.92
2017-05-31T09:38:04.819Z,4.13
2017-05-31T09:40:33.016Z,3.58
2017-05-31T09:43:01.244Z,6.50
2017-05-31T09:45:29.455Z,4.42
2017-05-31T09:47:57.679Z,2.82
2017-05-31T09:50:25.904Z,3.97
2017-05-31T09:52:54.136Z,4.90
2017-05-31T09:55:21.797Z,4.77
2017-05-31T09:57:50.217Z,5.08
2017-05-31T10:00:18.419Z,3.88
2017-05-31T10:02:46.679Z,2.92
2017-05-31T10:05:14.940Z,4.23
2017-05-31T10:07:42.436Z,6.10
2017-05-31T10:10:10.635Z,5.12
2017-05-31T10:12:38.869Z,5.37
2017-05-31T10:15:07.125Z,5.35
2017-05-31T10:17:35.379Z,6.27
2017-05-31T10:20:02.834Z,5.67
2017-05-31T10:22:31.047Z,6.98
2017-05-31T10:24:59.267Z,6.98
2017-05-31T10:27:27.663Z,4.20
2017-05-31T10:29:56.152Z,7.03
2017-05-31T10:32:24.427Z,5.80
2017-05-31T10:34:52.795Z,5.40
2017-05-31T10:37:21.010Z,5.30
2017-05-31T10:39:49.217Z,5.35
2017-05-31T10:42:17.519Z,6.30
2017-05-31T10:44:46.081Z,5.10
2017-05-31T10:47:14.314Z,6.98
2017-05-31T10:49:42.525Z,7.30
2017-05-31T10:52:10.914Z,7.92
2017-05-31T10:54:39.119Z,7.34
2017-05-31T10:57:07.467Z,4.23
2017-05-31T10:59:35.707Z,6.02
2017-05-31T11:02:03.991Z,7.03
2017-05-31T11:04:32.315Z,6.53
2017-05-31T11:07:00.535Z,6.45
2017-05-31T11:09:28.756Z,4.37
2017-05-31T11:11:57.249Z,5.93
2017-05-31T11:14:25.447Z,4.66
2017-05-31T11:16:53.692Z,6.27
2017-05-31T11:19:21.908Z,6.32
2017-05-31T11:21:50.114Z,5.85
2017-05-31T11:24:18.411Z,6.50
2017-05-31T11:26:46.784Z,8.10
2017-05-31T11:29:15.012Z,5.70
2017-05-31T11:31:43.231Z,5.15
2017-05-31T11:34:11.446Z,6.15
2017-05-31T11:36:39.813Z,7.14
2017-05-31T11:39:08.071Z,5.87
2017-05-31T11:41:35.627Z,6.38
2017-05-31T11:44:03.895Z,5.93
2017-05-31T11:46:32.227Z,7.67
2017-05-31T11:49:00.503Z,5.23
2017-05-31T11:51:28.724Z,7.70
2017-05-31T11:53:57.103Z,6.40
2017-05-31T11:56:25.307Z,8.28
2017-05-31T11:58:53.517Z,6.42
2017-05-31T12:01:21.762Z,5.90
2017-05-31T12:03:50.015Z,5.65
2017-05-31T12:06:18.239Z,5.56
2017-05-31T12:08:46.471Z,7.07
2017-05-31T12:11:14.823Z,7.78
2017-05-31T12:13:43.236Z,6.30
2017-05-31T12:16:11.427Z,9.83
2017-05-31T12:18:39.671Z,5.40
2017-05-31T12:21:07.927Z,6.66
2017-05-31T12:23:36.212Z,7.18
2017-05-31T12:26:03.764Z,9.33
2017-05-31T12:28:32.038Z,7.60
2017-05-31T12:31:00.263Z,4.88
2017-05-31T12:33:28.481Z,6.10
2017-05-31T12:35:56.678Z,5.14
2017-05-31T12:38:24.923Z,5.02
2017-05-31T12:40:53.224Z,6.02
2017-05-31T12:43:21.475Z,8.48
2017-05-31T12:45:49.672Z,7.40
2017-05-31T12:48:17.943Z,5.70
2017-05-31T12:50:46.155Z,5.78
2017-05-31T12:53:14.355Z,7.18
2017-05-31T12:55:42.579Z,6.05
2017-05-31T12:58:10.910Z,6.65
2017-05-31T13:00:39.131Z,6.75
2017-05-31T13:03:07.335Z,4.40
2017-05-31T13:05:35.546Z,6.27
2017-05-31T13:08:03.758Z,9.00
2017-05-31T13:10:32.048Z,7.35
2017-05-31T13:13:00.390Z,8.63
2017-05-31T13:15:28.651Z,5.48
2017-05-31T13:17:57.013Z,4.10
2017-05-31T13:20:25.223Z,5.22
2017-05-31T13:22:53.493Z,7.04
2017-05-31T13:25:21.731Z,4.68
2017-05-31T13:27:49.999Z,6.56
2017-05-31T13:30:18.218Z,5.58
2017-05-31T13:32:46.808Z,5.57
2017-05-31T13:35:15.011Z,7.30
2017-05-31T13:37:43.256Z,5.78
2017-05-31T13:40:11.508Z,4.82
2017-05-31T13:42:39.791Z,6.68
2017-05-31T13:45:08.139Z,6.05
2017-05-31T13:47:36.319Z,8.12
2017-05-31T13:50:04.615Z,4.80
2017-05-31T13:52:32.884Z,4.95
2017-05-31T13:55:01.137Z,7.07
2017-05-31T13:57:29.356Z,6.55
2017-05-31T13:59:57.607Z,6.07
2017-05-31T14:02:25.968Z,6.50
2017-05-31T14:04:54.205Z,5.47
2017-05-31T14:07:22.405Z,8.90
2017-05-31T14:09:50.623Z,4.52
2017-05-31T14:12:18.886Z,5.38
2017-05-31T14:14:47.095Z,5.93
2017-05-31T14:17:15.343Z,8.45
2017-05-31T14:19:43.733Z,5.85
2017-05-31T14:22:12.001Z,6.28
2017-05-31T14:24:40.230Z,6.23
2017-05-31T14:27:08.436Z,5.35
2017-05-31T14:29:36.690Z,4.82
2017-05-31T14:32:04.901Z,5.83
2017-05-31T14:34:33.213Z,8.37
2017-05-31T14:37:01.618Z,7.22
2017-05-31T14:39:29.837Z,5.80
2017-05-31T14:41:58.044Z,6.17
2017-05-31T14:44:26.247Z,4.92
2017-05-31T14:46:54.649Z,7.07
2017-05-31T14:49:22.859Z,7.05
2017-05-31T14:51:51.087Z,5.50
2017-05-31T14:54:19.363Z,6.02
2017-05-31T14:56:47.587Z,6.17
2017-05-31T14:59:15.802Z,7.43
2017-05-31T15:01:44.159Z,6.28
2017-05-31T15:04:12.467Z,5.32
2017-05-31T15:06:40.730Z,5.07
2017-05-31T15:09:08.939Z,7.43
2017-05-31T15:11:37.177Z,6.23
2017-05-31T15:14:05.380Z,6.05
2017-05-31T15:16:33.743Z,7.47
2017-05-31T15:19:02.001Z,5.60
2017-05-31T15:21:30.276Z,5.75
2017-05-31T15:23:58.491Z,7.10
2017-05-31T15:26:26.731Z,5.64
2017-05-31T15:28:55.031Z,6.83
2017-05-31T15:31:23.392Z,5.08
2017-05-31T15:33:51.689Z,7.12
2017-05-31T15:36:19.954Z,6.33
2017-05-31T15:38:48.198Z,5.83
2017-05-31T15:41:16.435Z,7.85
2017-05-31T15:43:44.766Z,5.84
2017-05-31T15:46:12.204Z,6.12
2017-05-31T15:48:40.499Z,5.08
2017-05-31T15:51:08.721Z,5.00
2017-05-31T15:53:36.974Z,8.86
2017-05-31T15:56:05.212Z,4.23
2017-05-31T15:58:33.427Z,5.32
2017-05-31T16:01:01.668Z,6.33
2017-05-31T16:03:29.884Z,4.60
2017-05-31T16:05:58.134Z,4.48
2017-05-31T16:08:26.510Z,7.63
2017-05-31T16:10:54.067Z,5.98
2017-05-31T16:13:22.343Z,6.93
2017-05-31T16:15:50.873Z,6.62
2017-05-31T16:18:19.088Z,6.07
2017-05-31T16:20:47.379Z,6.72
2017-05-31T16:23:15.578Z,5.05
2017-05-31T16:25:43.823Z,7.94
2017-05-31T16:28:12.088Z,7.65
2017-05-31T16:30:40.343Z,8.60
2017-05-31T16:33:08.614Z,8.20
2017-05-31T16:35:36.934Z,11.27
2017-05-31T16:38:05.119Z,7.65
2017-05-31T16:40:33.472Z,7.93
2017-05-31T16:43:01.682Z,7.52
2017-05-31T16:45:29.916Z,5.70
2017-05-31T16:47:58.275Z,10.30
2017-05-31T16:50:26.507Z,9.08
2017-05-31T16:52:54.745Z,8.25
2017-05-31T16:55:22.947Z,5.18
2017-05-31T16:57:51.239Z,4.82
2017-05-31T17:00:19.474Z,4.78
2017-05-31T17:02:47.676Z,7.28
2017-05-31T17:05:15.886Z,5.25
2017-05-31T17:07:44.115Z,7.25
2017-05-31T17:10:12.339Z,7.87
2017-05-31T17:12:40.656Z,8.42
2017-05-31T17:15:08.953Z,5.30
2017-05-31T17:17:37.183Z,6.63
2017-05-31T17:20:05.781Z,6.53
2017-05-31T17:22:33.999Z,6.45
2017-05-31T17:25:02.323Z,7.80
2017-05-31T17:27:30.609Z,7.37
2017-05-31T17:29:58.871Z,7.32
2017-05-31T17:32:27.083Z,5.68
2017-05-31T17:34:55.311Z,5.22
2017-05-31T17:37:23.607Z,4.92
2017-05-31T17:39:51.950Z,6.17
2017-05-31T17:42:20.162Z,6.43
2017-05-31T17:44:48.370Z,8.45
2017-05-31T17:47:16.750Z,6.32
2017-05-31T17:49:44.971Z,6.72
2017-05-31T17:52:13.246Z,6.75
2017-05-31T17:54:41.551Z,7.72
2017-05-31T17:57:09.772Z,5.78
2017-05-31T17:59:38.119Z,6.18
2017-05-31T18:02:06.355Z,5.90
2017-05-31T18:04:34.634Z,7.30
2017-05-31T18:07:02.887Z,6.25
2017-05-31T18:09:31.103Z,6.68
2017-05-31T18:11:59.469Z,6.18
2017-05-31T18:14:27.735Z,5.27
2017-05-31T18:16:55.971Z,6.28
2017-05-31T18:19:24.184Z,8.73
2017-05-31T18:21:52.394Z,6.33
2017-05-31T18:24:20.604Z,7.95
2017-05-31T18:26:48.807Z,7.33
2017-05-31T18:29:17.023Z,7.70
2017-05-31T18:31:45.370Z,8.02
2017-05-31T18:34:13.571Z,8.00
2017-05-31T18:36:41.775Z,7.05
2017-05-31T18:39:09.990Z,7.82
2017-05-31T18:41:38.215Z,6.83
2017-05-31T18:44:06.503Z,8.08
2017-05-31T18:46:34.703Z,9.60
2017-05-31T18:49:03.151Z,10.65
2017-05-31T18:51:31.347Z,8.52
2017-05-31T18:53:59.567Z,9.73
2017-05-31T18:56:27.825Z,6.66
2017-05-31T18:58:56.082Z,7.40
2017-05-31T19:01:24.400Z,8.17
2017-05-31T19:03:52.636Z,8.75
2017-05-31T19:06:20.839Z,9.55
2017-05-31T19:08:49.063Z,6.60
2017-05-31T19:11:17.296Z,7.65
2017-05-31T19:13:45.541Z,8.07
2017-05-31T19:16:13.751Z,8.33
2017-05-31T19:18:42.033Z,8.40
2017-05-31T19:21:10.242Z,8.45
2017-05-31T19:23:38.474Z,6.93
2017-05-31T19:26:06.711Z,9.53
2017-05-31T19:28:34.936Z,9.20
2017-05-31T19:31:03.161Z,7.25
2017-05-31T19:33:31.367Z,7.10
2017-05-31T19:35:59.585Z,9.30
2017-05-31T19:38:27.887Z,10.87
2017-05-31T19:40:56.086Z,11.04
2017-05-31T19:43:24.312Z,6.27
2017-05-31T19:45:52.568Z,7.47
2017-05-31T19:48:20.867Z,8.23
2017-05-31T19:50:49.074Z,10.78
2017-05-31T19:53:17.327Z,9.17
2017-05-31T19:55:45.599Z,9.80
2017-05-31T19:58:14.768Z,10.00
2017-05-31T20:00:42.983Z,10.85
2017-05-31T20:03:11.197Z,10.07
2017-05-31T20:05:39.427Z,10.80
2017-05-31T20:08:07.785Z,13.42
2017-05-31T20:10:35.999Z,10.50
2017-05-31T20:13:04.214Z,12.87
2017-05-31T20:15:32.448Z,13.17
2017-05-31T20:18:00.787Z,10.52
2017-05-31T20:20:29.034Z,12.78
2017-05-31T20:22:57.298Z,10.40
2017-05-31T20:25:25.555Z,12.42
2017-05-31T20:27:53.755Z,11.77
2017-05-31T20:30:21.978Z,13.80
2017-05-31T20:32:50.203Z,10.85
2017-05-31T20:35:18.507Z,9.72
2017-05-31T20:37:46.723Z,8.42
2017-05-31T20:40:14.935Z,11.02
2017-05-31T20:42:43.151Z,10.20
2017-05-31T20:45:11.371Z,14.15
2017-05-31T20:47:40.372Z,10.22
2017-05-31T20:50:09.269Z,11.40
2017-05-31T20:52:37.586Z,12.48
2017-05-31T20:55:05.806Z,15.82
2017-05-31T20:57:34.119Z,8.12
2017-05-31T21:00:02.342Z,10.48
2017-05-31T21:02:30.601Z,12.68
2017-05-31T21:04:58.841Z,14.12
2017-05-31T21:07:27.069Z,9.57
2017-05-31T21:09:55.303Z,11.47
2017-05-31T21:12:23.603Z,12.35
2017-05-31T21:14:52.213Z,13.82
2017-05-31T21:17:20.500Z,10.35
2017-05-31T21:19:48.736Z,13.57
2017-05-31T21:22:16.949Z,10.23
2017-05-31T21:24:45.164Z,12.00
2017-05-31T21:27:13.382Z,12.82
2017-05-31T21:29:41.613Z,13.35
2017-05-31T21:32:09.877Z,11.23
2017-05-31T21:34:38.144Z,9.45
2017-05-31T21:37:06.355Z,11.04
2017-05-31T21:39:34.595Z,11.50
2017-05-31T21:42:03.765Z,13.20
2017-05-31T21:44:32.078Z,12.48
2017-05-31T21:47:00.314Z,14.80
2017-05-31T21:49:28.543Z,13.08
2017-05-31T21:51:56.747Z,10.73
2017-05-31T21:54:25.176Z,9.68
2017-05-31T21:56:53.428Z,14.93
2017-05-31T21:59:21.762Z,13.77
2017-05-31T22:01:50.029Z,15.00
2017-05-31T22:04:18.283Z,12.52
2017-05-31T22:06:46.484Z,13.23
2017-05-31T22:09:14.695Z,11.87
2017-05-31T22:11:42.912Z,10.57
2017-05-31T22:14:11.138Z,11.13
2017-05-31T22:16:39.445Z,16.62
2017-05-31T22:19:07.740Z,11.45
2017-05-31T22:21:35.961Z,16.42
2017-05-31T22:24:04.203Z,13.03
2017-05-31T22:26:32.461Z,9.08
2017-05-31T22:29:00.662Z,14.87
2017-05-31T22:31:28.909Z,12.08
2017-05-31T22:33:57.142Z,12.67
2017-05-31T22:36:25.435Z,10.44
2017-05-31T22:38:53.647Z,11.05
2017-05-31T22:41:21.867Z,11.28
2017-05-31T22:43:50.159Z,14.43
2017-05-31T22:46:18.377Z,13.05
2017-05-31T22:48:46.580Z,14.08
2017-05-31T22:51:14.798Z,13.02
2017-05-31T22:53:43.073Z,12.23
2017-05-31T22:56:11.303Z,14.40
2017-05-31T22:58:39.507Z,15.77
2017-05-31T23:01:07.743Z,14.03
2017-05-31T23:03:36.062Z,13.52
2017-05-31T23:06:04.339Z,11.53
2017-05-31T23:08:32.559Z,11.60
2017-05-31T23:11:00.791Z,16.55
2017-05-31T23:13:29.022Z,12.37
2017-05-31T23:15:57.242Z,13.20
2017-05-31T23:18:25.471Z,18.88
2017-05-31T23:20:53.683Z,13.90
2017-05-31T23:23:21.951Z,10.92
2017-05-31T23:25:50.175Z,18.82
2017-05-31T23:28:18.383Z,11.78
2017-05-31T23:30:46.607Z,15.42
2017-05-31T23:33:14.833Z,15.92
2017-05-31T23:35:43.127Z,14.60
2017-05-31T23:38:11.345Z,10.73
2017-05-31T23:40:39.547Z,13.62
2017-05-31T23:43:07.774Z,15.96
2017-05-31T23:45:35.983Z,16.72
2017-05-31T23:48:04.223Z,12.78
2017-05-31T23:50:32.484Z,11.78
2017-05-31T23:53:00.707Z,14.10
2017-05-31T23:55:29.015Z,16.67
2017-05-31T23:57:58.178Z,15.12
